Aviation Digital Data Service (ADDS)

Output produced by METARs form (0430 UTC 26 June 2019)
found at http://www.aviationweather.gov/metar/data/
 
Forecast for: NLWW (HIHIFO ILE WALLI, WS)
Text: TAF NLWW 252300Z 2600/2624 12014KT 9999 SCT020
Forecast period: 0000 UTC 26 June 2019 to 0000 UTC 27 June 2019
Forecast type: FROM: standard forecast or significant change
Winds: from the ESE (120 degrees) at 16 MPH (14 knots; 7.2 m/s)
Visibility: 6 or more miles 10+ km)
Ceiling: at least 12,000 feet AGL
Clouds: scattered clouds at 2000 feet AGL
Weather: no significant weather forecast for this period